sensor_id;sensor_type;location;lat;lon;timestamp;P1;durP1;ratioP1;P2;durP2;ratioP2
61391;SDS011;47261;52.892;5.738;2024-02-26T00:01:40;14.50;;;5.27;;
61391;SDS011;47261;52.892;5.738;2024-02-26T00:04:06;13.43;;;6.07;;
61391;SDS011;47261;52.892;5.738;2024-02-26T00:06:32;10.02;;;4.65;;
61391;SDS011;47261;52.892;5.738;2024-02-26T00:08:57;12.97;;;6.47;;
61391;SDS011;47261;52.892;5.738;2024-02-26T00:11:23;16.67;;;7.47;;
61391;SDS011;47261;52.892;5.738;2024-02-26T00:13:48;12.37;;;5.73;;
61391;SDS011;47261;52.892;5.738;2024-02-26T00:16:14;14.13;;;5.77;;
61391;SDS011;47261;52.892;5.738;2024-02-26T00:18:40;14.57;;;6.05;;
61391;SDS011;47261;52.892;5.738;2024-02-26T00:21:05;20.33;;;6.50;;
61391;SDS011;47261;52.892;5.738;2024-02-26T00:23:31;16.08;;;6.45;;
61391;SDS011;47261;52.892;5.738;2024-02-26T00:25:57;14.97;;;6.57;;
61391;SDS011;47261;52.892;5.738;2024-02-26T00:28:23;18.17;;;7.20;;
61391;SDS011;47261;52.892;5.738;2024-02-26T00:30:49;14.27;;;5.63;;
61391;SDS011;47261;52.892;5.738;2024-02-26T00:33:20;14.27;;;5.45;;
61391;SDS011;47261;52.892;5.738;2024-02-26T00:35:47;13.23;;;5.47;;
61391;SDS011;47261;52.892;5.738;2024-02-26T00:38:12;11.80;;;5.15;;
61391;SDS011;47261;52.892;5.738;2024-02-26T00:40:38;17.33;;;5.90;;
61391;SDS011;47261;52.892;5.738;2024-02-26T00:43:04;16.90;;;7.10;;
61391;SDS011;47261;52.892;5.738;2024-02-26T00:45:30;17.60;;;6.45;;
61391;SDS011;47261;52.892;5.738;2024-02-26T00:47:57;16.33;;;6.32;;
61391;SDS011;47261;52.892;5.738;2024-02-26T00:50:23;12.73;;;4.80;;
61391;SDS011;47261;52.892;5.738;2024-02-26T00:52:48;14.43;;;5.47;;
61391;SDS011;47261;52.892;5.738;2024-02-26T00:55:14;14.07;;;5.40;;
61391;SDS011;47261;52.892;5.738;2024-02-26T00:57:39;20.98;;;7.68;;
61391;SDS011;47261;52.892;5.738;2024-02-26T01:00:06;12.80;;;4.87;;
61391;SDS011;47261;52.892;5.738;2024-02-26T01:02:34;10.60;;;4.68;;
61391;SDS011;47261;52.892;5.738;2024-02-26T01:04:59;12.60;;;4.93;;
61391;SDS011;47261;52.892;5.738;2024-02-26T01:07:25;11.47;;;4.83;;
61391;SDS011;47261;52.892;5.738;2024-02-26T01:09:50;15.73;;;5.28;;
61391;SDS011;47261;52.892;5.738;2024-02-26T01:12:16;13.23;;;5.43;;
61391;SDS011;47261;52.892;5.738;2024-02-26T01:14:42;14.57;;;5.50;;
61391;SDS011;47261;52.892;5.738;2024-02-26T01:17:07;17.67;;;6.68;;
61391;SDS011;47261;52.892;5.738;2024-02-26T01:19:33;13.90;;;5.90;;
61391;SDS011;47261;52.892;5.738;2024-02-26T01:21:58;14.57;;;6.33;;
61391;SDS011;47261;52.892;5.738;2024-02-26T01:24:24;17.77;;;6.88;;
61391;SDS011;47261;52.892;5.738;2024-02-26T01:26:50;13.50;;;5.00;;
61391;SDS011;47261;52.892;5.738;2024-02-26T01:29:15;13.77;;;6.03;;
61391;SDS011;47261;52.892;5.738;2024-02-26T01:31:41;15.80;;;6.53;;
61391;SDS011;47261;52.892;5.738;2024-02-26T01:34:06;13.23;;;6.37;;
61391;SDS011;47261;52.892;5.738;2024-02-26T01:36:32;14.35;;;5.70;;
61391;SDS011;47261;52.892;5.738;2024-02-26T01:38:59;15.13;;;6.90;;
61391;SDS011;47261;52.892;5.738;2024-02-26T01:41:25;12.50;;;5.27;;
61391;SDS011;47261;52.892;5.738;2024-02-26T01:43:50;14.45;;;6.43;;
61391;SDS011;47261;52.892;5.738;2024-02-26T01:46:16;12.02;;;4.35;;
61391;SDS011;47261;52.892;5.738;2024-02-26T01:48:43;14.73;;;6.18;;
61391;SDS011;47261;52.892;5.738;2024-02-26T01:51:11;17.17;;;6.25;;
61391;SDS011;47261;52.892;5.738;2024-02-26T01:53:39;16.08;;;6.05;;
61391;SDS011;47261;52.892;5.738;2024-02-26T01:56:05;14.85;;;5.65;;
61391;SDS011;47261;52.892;5.738;2024-02-26T01:58:32;14.73;;;5.30;;
61391;SDS011;47261;52.892;5.738;2024-02-26T02:00:59;19.73;;;8.23;;
61391;SDS011;47261;52.892;5.738;2024-02-26T02:03:26;19.15;;;7.97;;
61391;SDS011;47261;52.892;5.738;2024-02-26T02:05:52;15.35;;;6.35;;
61391;SDS011;47261;52.892;5.738;2024-02-26T02:08:18;23.55;;;8.07;;
61391;SDS011;47261;52.892;5.738;2024-02-26T02:10:44;23.20;;;7.07;;
61391;SDS011;47261;52.892;5.738;2024-02-26T02:13:12;20.55;;;7.97;;
61391;SDS011;47261;52.892;5.738;2024-02-26T02:15:38;23.45;;;8.65;;
61391;SDS011;47261;52.892;5.738;2024-02-26T02:18:04;22.55;;;8.52;;
61391;SDS011;47261;52.892;5.738;2024-02-26T02:20:34;20.73;;;7.03;;
61391;SDS011;47261;52.892;5.738;2024-02-26T02:23:00;23.13;;;9.30;;
61391;SDS011;47261;52.892;5.738;2024-02-26T02:25:25;16.65;;;7.18;;
61391;SDS011;47261;52.892;5.738;2024-02-26T02:27:51;19.93;;;9.17;;
61391;SDS011;47261;52.892;5.738;2024-02-26T02:30:19;16.25;;;7.68;;
61391;SDS011;47261;52.892;5.738;2024-02-26T02:32:49;17.48;;;8.10;;
61391;SDS011;47261;52.892;5.738;2024-02-26T02:35:14;18.58;;;8.00;;
61391;SDS011;47261;52.892;5.738;2024-02-26T02:37:40;16.70;;;8.45;;
61391;SDS011;47261;52.892;5.738;2024-02-26T02:40:06;19.15;;;9.23;;
61391;SDS011;47261;52.892;5.738;2024-02-26T02:42:32;16.33;;;8.32;;
61391;SDS011;47261;52.892;5.738;2024-02-26T02:44:58;14.95;;;7.53;;
61391;SDS011;47261;52.892;5.738;2024-02-26T02:47:24;18.73;;;9.23;;
61391;SDS011;47261;52.892;5.738;2024-02-26T02:49:49;18.95;;;8.13;;
61391;SDS011;47261;52.892;5.738;2024-02-26T02:52:15;16.27;;;7.47;;
61391;SDS011;47261;52.892;5.738;2024-02-26T02:54:41;17.13;;;9.10;;
61391;SDS011;47261;52.892;5.738;2024-02-26T02:57:10;15.18;;;8.35;;
61391;SDS011;47261;52.892;5.738;2024-02-26T02:59:36;18.98;;;8.50;;
61391;SDS011;47261;52.892;5.738;2024-02-26T03:02:02;14.90;;;7.18;;
61391;SDS011;47261;52.892;5.738;2024-02-26T03:04:28;18.10;;;8.13;;
61391;SDS011;47261;52.892;5.738;2024-02-26T03:06:54;16.58;;;8.82;;
61391;SDS011;47261;52.892;5.738;2024-02-26T03:09:20;14.63;;;6.53;;
61391;SDS011;47261;52.892;5.738;2024-02-26T03:11:45;15.93;;;7.75;;
61391;SDS011;47261;52.892;5.738;2024-02-26T03:14:11;16.60;;;8.70;;
61391;SDS011;47261;52.892;5.738;2024-02-26T03:16:37;15.93;;;8.05;;
61391;SDS011;47261;52.892;5.738;2024-02-26T03:19:02;16.43;;;8.43;;
61391;SDS011;47261;52.892;5.738;2024-02-26T03:21:28;13.13;;;6.90;;
61391;SDS011;47261;52.892;5.738;2024-02-26T03:23:54;14.32;;;7.78;;
61391;SDS011;47261;52.892;5.738;2024-02-26T03:26:20;11.52;;;4.65;;
61391;SDS011;47261;52.892;5.738;2024-02-26T03:28:46;10.10;;;4.80;;
61391;SDS011;47261;52.892;5.738;2024-02-26T03:31:12;11.45;;;6.35;;
61391;SDS011;47261;52.892;5.738;2024-02-26T03:33:38;12.27;;;5.57;;
61391;SDS011;47261;52.892;5.738;2024-02-26T03:36:04;11.07;;;5.53;;
61391;SDS011;47261;52.892;5.738;2024-02-26T03:38:30;11.10;;;5.93;;
61391;SDS011;47261;52.892;5.738;2024-02-26T03:40:55;10.02;;;5.15;;
61391;SDS011;47261;52.892;5.738;2024-02-26T03:43:21;11.00;;;6.30;;
61391;SDS011;47261;52.892;5.738;2024-02-26T03:45:47;9.00;;;4.47;;
61391;SDS011;47261;52.892;5.738;2024-02-26T03:48:12;10.48;;;4.30;;
61391;SDS011;47261;52.892;5.738;2024-02-26T03:50:38;7.40;;;3.13;;
61391;SDS011;47261;52.892;5.738;2024-02-26T03:53:04;8.45;;;3.95;;
61391;SDS011;47261;52.892;5.738;2024-02-26T03:55:29;10.77;;;4.93;;
61391;SDS011;47261;52.892;5.738;2024-02-26T03:57:55;8.95;;;3.40;;
61391;SDS011;47261;52.892;5.738;2024-02-26T04:00:21;9.43;;;4.97;;
61391;SDS011;47261;52.892;5.738;2024-02-26T04:02:47;10.07;;;4.47;;
61391;SDS011;47261;52.892;5.738;2024-02-26T04:05:13;9.65;;;5.50;;
61391;SDS011;47261;52.892;5.738;2024-02-26T04:07:39;11.87;;;4.37;;
61391;SDS011;47261;52.892;5.738;2024-02-26T04:10:12;12.20;;;6.10;;
61391;SDS011;47261;52.892;5.738;2024-02-26T04:12:39;10.38;;;5.55;;
61391;SDS011;47261;52.892;5.738;2024-02-26T04:15:06;8.30;;;3.83;;
61391;SDS011;47261;52.892;5.738;2024-02-26T04:17:35;9.82;;;3.95;;
61391;SDS011;47261;52.892;5.738;2024-02-26T04:20:02;10.70;;;4.30;;
61391;SDS011;47261;52.892;5.738;2024-02-26T04:22:28;7.65;;;3.22;;
61391;SDS011;47261;52.892;5.738;2024-02-26T04:24:54;9.60;;;4.15;;
61391;SDS011;47261;52.892;5.738;2024-02-26T04:27:19;9.70;;;4.13;;
61391;SDS011;47261;52.892;5.738;2024-02-26T04:29:45;9.30;;;4.40;;
61391;SDS011;47261;52.892;5.738;2024-02-26T04:32:11;8.00;;;3.90;;
61391;SDS011;47261;52.892;5.738;2024-02-26T04:34:36;8.50;;;3.67;;
61391;SDS011;47261;52.892;5.738;2024-02-26T04:37:02;7.43;;;3.30;;
61391;SDS011;47261;52.892;5.738;2024-02-26T04:39:28;10.57;;;4.47;;
61391;SDS011;47261;52.892;5.738;2024-02-26T04:41:53;10.30;;;4.18;;
61391;SDS011;47261;52.892;5.738;2024-02-26T04:44:19;6.67;;;3.17;;
61391;SDS011;47261;52.892;5.738;2024-02-26T04:46:45;8.65;;;3.95;;
61391;SDS011;47261;52.892;5.738;2024-02-26T04:49:10;6.20;;;2.50;;
61391;SDS011;47261;52.892;5.738;2024-02-26T04:51:36;9.87;;;3.20;;
61391;SDS011;47261;52.892;5.738;2024-02-26T04:54:02;9.43;;;4.45;;
61391;SDS011;47261;52.892;5.738;2024-02-26T04:56:28;8.25;;;3.30;;
61391;SDS011;47261;52.892;5.738;2024-02-26T04:58:53;7.40;;;2.70;;
61391;SDS011;47261;52.892;5.738;2024-02-26T05:01:19;5.43;;;2.88;;
61391;SDS011;47261;52.892;5.738;2024-02-26T05:03:45;7.57;;;2.70;;
61391;SDS011;47261;52.892;5.738;2024-02-26T05:06:10;5.45;;;2.50;;
61391;SDS011;47261;52.892;5.738;2024-02-26T05:08:36;7.10;;;2.63;;
61391;SDS011;47261;52.892;5.738;2024-02-26T05:11:03;6.22;;;2.92;;
61391;SDS011;47261;52.892;5.738;2024-02-26T05:13:29;6.47;;;2.78;;
61391;SDS011;47261;52.892;5.738;2024-02-26T05:15:55;6.10;;;1.80;;
61391;SDS011;47261;52.892;5.738;2024-02-26T05:18:24;9.53;;;2.67;;
61391;SDS011;47261;52.892;5.738;2024-02-26T05:20:49;6.13;;;2.70;;
61391;SDS011;47261;52.892;5.738;2024-02-26T05:23:15;5.20;;;2.08;;
61391;SDS011;47261;52.892;5.738;2024-02-26T05:25:41;4.50;;;1.70;;
61391;SDS011;47261;52.892;5.738;2024-02-26T05:28:06;5.47;;;2.40;;
61391;SDS011;47261;52.892;5.738;2024-02-26T05:30:32;7.23;;;1.67;;
61391;SDS011;47261;52.892;5.738;2024-02-26T05:32:58;4.47;;;1.70;;
61391;SDS011;47261;52.892;5.738;2024-02-26T05:35:24;6.23;;;2.40;;
61391;SDS011;47261;52.892;5.738;2024-02-26T05:37:50;4.80;;;1.80;;
61391;SDS011;47261;52.892;5.738;2024-02-26T05:40:16;5.57;;;2.30;;
61391;SDS011;47261;52.892;5.738;2024-02-26T05:42:42;6.68;;;2.05;;
61391;SDS011;47261;52.892;5.738;2024-02-26T05:45:10;6.47;;;2.28;;
61391;SDS011;47261;52.892;5.738;2024-02-26T05:47:35;6.63;;;2.37;;
61391;SDS011;47261;52.892;5.738;2024-02-26T05:50:01;6.80;;;2.22;;
61391;SDS011;47261;52.892;5.738;2024-02-26T05:52:27;5.73;;;2.23;;
61391;SDS011;47261;52.892;5.738;2024-02-26T05:54:56;5.78;;;2.45;;
61391;SDS011;47261;52.892;5.738;2024-02-26T05:57:22;10.48;;;1.20;;
61391;SDS011;47261;52.892;5.738;2024-02-26T05:59:47;7.43;;;3.10;;
61391;SDS011;47261;52.892;5.738;2024-02-26T06:02:13;6.70;;;1.87;;
61391;SDS011;47261;52.892;5.738;2024-02-26T06:04:39;5.97;;;1.80;;
61391;SDS011;47261;52.892;5.738;2024-02-26T06:07:04;7.23;;;2.67;;
61391;SDS011;47261;52.892;5.738;2024-02-26T06:09:30;4.07;;;1.75;;
61391;SDS011;47261;52.892;5.738;2024-02-26T06:11:56;7.03;;;2.57;;
61391;SDS011;47261;52.892;5.738;2024-02-26T06:14:21;7.00;;;2.50;;
61391;SDS011;47261;52.892;5.738;2024-02-26T06:16:47;6.78;;;2.60;;
61391;SDS011;47261;52.892;5.738;2024-02-26T06:19:13;6.25;;;2.05;;
61391;SDS011;47261;52.892;5.738;2024-02-26T06:21:38;5.60;;;2.58;;
61391;SDS011;47261;52.892;5.738;2024-02-26T06:24:04;6.77;;;2.53;;
61391;SDS011;47261;52.892;5.738;2024-02-26T06:26:30;6.57;;;2.28;;
61391;SDS011;47261;52.892;5.738;2024-02-26T06:28:58;7.45;;;3.45;;
61391;SDS011;47261;52.892;5.738;2024-02-26T06:31:24;8.57;;;1.90;;
61391;SDS011;47261;52.892;5.738;2024-02-26T06:33:52;7.13;;;2.42;;
61391;SDS011;47261;52.892;5.738;2024-02-26T06:36:19;6.55;;;1.73;;
61391;SDS011;47261;52.892;5.738;2024-02-26T06:38:44;5.77;;;2.47;;
61391;SDS011;47261;52.892;5.738;2024-02-26T06:41:10;7.18;;;2.35;;
61391;SDS011;47261;52.892;5.738;2024-02-26T06:43:36;7.30;;;2.73;;
61391;SDS011;47261;52.892;5.738;2024-02-26T06:46:02;3.55;;;1.50;;
61391;SDS011;47261;52.892;5.738;2024-02-26T06:48:28;5.05;;;1.20;;
61391;SDS011;47261;52.892;5.738;2024-02-26T06:50:56;3.85;;;1.38;;
61391;SDS011;47261;52.892;5.738;2024-02-26T06:53:22;4.13;;;1.75;;
61391;SDS011;47261;52.892;5.738;2024-02-26T06:55:48;4.67;;;2.00;;
61391;SDS011;47261;52.892;5.738;2024-02-26T06:58:15;4.25;;;1.55;;
61391;SDS011;47261;52.892;5.738;2024-02-26T07:00:41;5.47;;;1.83;;
61391;SDS011;47261;52.892;5.738;2024-02-26T07:03:06;3.93;;;1.40;;
61391;SDS011;47261;52.892;5.738;2024-02-26T07:05:32;5.97;;;2.40;;
61391;SDS011;47261;52.892;5.738;2024-02-26T07:07:58;5.43;;;2.03;;
61391;SDS011;47261;52.892;5.738;2024-02-26T07:10:24;7.43;;;1.58;;
61391;SDS011;47261;52.892;5.738;2024-02-26T07:12:50;6.07;;;1.57;;
61391;SDS011;47261;52.892;5.738;2024-02-26T07:15:15;4.43;;;1.60;;
61391;SDS011;47261;52.892;5.738;2024-02-26T07:17:41;4.85;;;1.40;;
61391;SDS011;47261;52.892;5.738;2024-02-26T07:20:11;3.78;;;1.27;;
61391;SDS011;47261;52.892;5.738;2024-02-26T07:22:37;5.32;;;1.80;;
61391;SDS011;47261;52.892;5.738;2024-02-26T07:25:03;4.00;;;1.13;;
61391;SDS011;47261;52.892;5.738;2024-02-26T07:27:29;4.10;;;1.40;;
61391;SDS011;47261;52.892;5.738;2024-02-26T07:29:55;4.97;;;1.40;;
61391;SDS011;47261;52.892;5.738;2024-02-26T07:32:20;3.35;;;1.15;;
61391;SDS011;47261;52.892;5.738;2024-02-26T07:34:47;3.80;;;1.45;;
61391;SDS011;47261;52.892;5.738;2024-02-26T07:37:13;3.60;;;1.27;;
61391;SDS011;47261;52.892;5.738;2024-02-26T07:39:38;3.50;;;1.00;;
61391;SDS011;47261;52.892;5.738;2024-02-26T07:42:04;3.00;;;1.10;;
61391;SDS011;47261;52.892;5.738;2024-02-26T07:44:30;3.53;;;1.25;;
61391;SDS011;47261;52.892;5.738;2024-02-26T07:46:55;5.23;;;1.10;;
61391;SDS011;47261;52.892;5.738;2024-02-26T07:49:21;4.45;;;1.20;;
61391;SDS011;47261;52.892;5.738;2024-02-26T07:51:46;3.27;;;1.00;;
61391;SDS011;47261;52.892;5.738;2024-02-26T07:54:12;3.22;;;1.08;;
61391;SDS011;47261;52.892;5.738;2024-02-26T07:56:38;4.20;;;0.90;;
61391;SDS011;47261;52.892;5.738;2024-02-26T07:59:03;2.70;;;0.82;;
61391;SDS011;47261;52.892;5.738;2024-02-26T08:01:29;6.30;;;1.37;;
61391;SDS011;47261;52.892;5.738;2024-02-26T08:03:54;3.13;;;0.87;;
61391;SDS011;47261;52.892;5.738;2024-02-26T08:06:20;4.57;;;1.20;;
61391;SDS011;47261;52.892;5.738;2024-02-26T08:08:46;7.50;;;1.77;;
61391;SDS011;47261;52.892;5.738;2024-02-26T08:11:14;4.07;;;1.43;;
61391;SDS011;47261;52.892;5.738;2024-02-26T08:13:40;4.60;;;1.17;;
61391;SDS011;47261;52.892;5.738;2024-02-26T08:16:06;3.38;;;1.05;;
61391;SDS011;47261;52.892;5.738;2024-02-26T08:18:32;5.93;;;1.17;;
61391;SDS011;47261;52.892;5.738;2024-02-26T08:20:57;3.22;;;0.98;;
61391;SDS011;47261;52.892;5.738;2024-02-26T08:23:23;2.23;;;0.87;;
61391;SDS011;47261;52.892;5.738;2024-02-26T08:25:50;3.40;;;1.25;;
61391;SDS011;47261;52.892;5.738;2024-02-26T08:28:15;5.57;;;1.40;;
61391;SDS011;47261;52.892;5.738;2024-02-26T08:30:43;3.00;;;0.98;;
61391;SDS011;47261;52.892;5.738;2024-02-26T08:33:08;4.13;;;1.40;;
61391;SDS011;47261;52.892;5.738;2024-02-26T08:35:35;4.07;;;1.40;;
61391;SDS011;47261;52.892;5.738;2024-02-26T08:38:01;5.17;;;1.70;;
61391;SDS011;47261;52.892;5.738;2024-02-26T08:40:27;5.88;;;1.73;;
61391;SDS011;47261;52.892;5.738;2024-02-26T08:42:53;3.75;;;1.30;;
61391;SDS011;47261;52.892;5.738;2024-02-26T08:45:20;4.20;;;0.88;;
61391;SDS011;47261;52.892;5.738;2024-02-26T08:47:46;5.80;;;1.50;;
61391;SDS011;47261;52.892;5.738;2024-02-26T08:50:11;3.97;;;1.50;;
61391;SDS011;47261;52.892;5.738;2024-02-26T08:52:39;3.63;;;1.40;;
61391;SDS011;47261;52.892;5.738;2024-02-26T08:55:05;4.05;;;1.05;;
61391;SDS011;47261;52.892;5.738;2024-02-26T08:57:33;4.63;;;1.80;;
61391;SDS011;47261;52.892;5.738;2024-02-26T08:59:59;3.10;;;1.05;;
61391;SDS011;47261;52.892;5.738;2024-02-26T09:02:28;2.47;;;0.73;;
61391;SDS011;47261;52.892;5.738;2024-02-26T09:04:54;4.00;;;1.08;;
61391;SDS011;47261;52.892;5.738;2024-02-26T09:07:20;3.23;;;1.03;;
61391;SDS011;47261;52.892;5.738;2024-02-26T09:09:46;3.05;;;1.08;;
61391;SDS011;47261;52.892;5.738;2024-02-26T09:12:12;2.30;;;0.70;;
61391;SDS011;47261;52.892;5.738;2024-02-26T09:14:37;5.65;;;1.48;;
61391;SDS011;47261;52.892;5.738;2024-02-26T09:17:03;3.93;;;1.20;;
61391;SDS011;47261;52.892;5.738;2024-02-26T09:19:28;4.00;;;1.20;;
61391;SDS011;47261;52.892;5.738;2024-02-26T09:21:54;3.60;;;0.93;;
61391;SDS011;47261;52.892;5.738;2024-02-26T09:24:22;2.85;;;1.10;;
61391;SDS011;47261;52.892;5.738;2024-02-26T09:26:49;3.30;;;1.20;;
61391;SDS011;47261;52.892;5.738;2024-02-26T09:29:14;4.77;;;0.87;;
61391;SDS011;47261;52.892;5.738;2024-02-26T09:31:40;3.72;;;0.90;;
61391;SDS011;47261;52.892;5.738;2024-02-26T09:34:06;1.97;;;0.80;;
61391;SDS011;47261;52.892;5.738;2024-02-26T09:36:33;4.82;;;0.90;;
61391;SDS011;47261;52.892;5.738;2024-02-26T09:38:59;2.88;;;0.75;;
61391;SDS011;47261;52.892;5.738;2024-02-26T09:41:25;2.75;;;0.90;;
61391;SDS011;47261;52.892;5.738;2024-02-26T09:43:53;2.60;;;0.80;;
61391;SDS011;47261;52.892;5.738;2024-02-26T09:46:22;2.35;;;0.70;;
61391;SDS011;47261;52.892;5.738;2024-02-26T09:48:50;3.13;;;0.98;;
61391;SDS011;47261;52.892;5.738;2024-02-26T09:51:16;2.70;;;0.90;;
61391;SDS011;47261;52.892;5.738;2024-02-26T09:53:43;2.40;;;1.00;;
61391;SDS011;47261;52.892;5.738;2024-02-26T09:56:11;2.92;;;0.77;;
61391;SDS011;47261;52.892;5.738;2024-02-26T09:58:40;4.88;;;1.42;;
61391;SDS011;47261;52.892;5.738;2024-02-26T10:01:10;4.25;;;1.05;;
61391;SDS011;47261;52.892;5.738;2024-02-26T10:03:38;3.25;;;0.80;;
61391;SDS011;47261;52.892;5.738;2024-02-26T10:06:07;8.20;;;1.55;;
61391;SDS011;47261;52.892;5.738;2024-02-26T10:08:36;3.15;;;1.00;;
61391;SDS011;47261;52.892;5.738;2024-02-26T10:11:02;4.22;;;0.95;;
61391;SDS011;47261;52.892;5.738;2024-02-26T10:13:38;3.45;;;1.05;;
61391;SDS011;47261;52.892;5.738;2024-02-26T10:16:03;4.10;;;1.00;;
61391;SDS011;47261;52.892;5.738;2024-02-26T10:18:50;4.55;;;0.95;;
61391;SDS011;47261;52.892;5.738;2024-02-26T10:21:22;3.53;;;1.23;;
61391;SDS011;47261;52.892;5.738;2024-02-26T10:23:48;7.43;;;1.60;;
61391;SDS011;47261;52.892;5.738;2024-02-26T10:26:15;5.45;;;1.30;;
61391;SDS011;47261;52.892;5.738;2024-02-26T10:28:41;3.72;;;1.20;;
61391;SDS011;47261;52.892;5.738;2024-02-26T10:31:08;3.63;;;1.10;;
61391;SDS011;47261;52.892;5.738;2024-02-26T10:33:35;3.75;;;1.23;;
61391;SDS011;47261;52.892;5.738;2024-02-26T10:36:02;3.70;;;1.00;;
61391;SDS011;47261;52.892;5.738;2024-02-26T10:38:30;3.38;;;0.90;;
61391;SDS011;47261;52.892;5.738;2024-02-26T10:40:57;2.40;;;0.65;;
61391;SDS011;47261;52.892;5.738;2024-02-26T10:43:22;4.00;;;1.08;;
61391;SDS011;47261;52.892;5.738;2024-02-26T10:45:48;3.27;;;1.13;;
61391;SDS011;47261;52.892;5.738;2024-02-26T10:48:14;4.03;;;1.30;;
61391;SDS011;47261;52.892;5.738;2024-02-26T10:50:40;3.03;;;1.23;;
61391;SDS011;47261;52.892;5.738;2024-02-26T10:53:16;5.50;;;1.60;;
61391;SDS011;47261;52.892;5.738;2024-02-26T10:55:45;4.97;;;1.30;;
61391;SDS011;47261;52.892;5.738;2024-02-26T10:58:14;2.88;;;1.27;;
61391;SDS011;47261;52.892;5.738;2024-02-26T11:00:41;4.72;;;1.67;;
61391;SDS011;47261;52.892;5.738;2024-02-26T11:03:08;6.35;;;1.60;;
61391;SDS011;47261;52.892;5.738;2024-02-26T11:05:35;4.72;;;1.50;;
61391;SDS011;47261;52.892;5.738;2024-02-26T11:08:01;4.03;;;1.33;;
61391;SDS011;47261;52.892;5.738;2024-02-26T11:10:29;3.35;;;1.30;;
61391;SDS011;47261;52.892;5.738;2024-02-26T11:12:56;4.53;;;1.42;;
61391;SDS011;47261;52.892;5.738;2024-02-26T11:15:24;3.72;;;1.23;;
61391;SDS011;47261;52.892;5.738;2024-02-26T11:17:51;4.20;;;1.25;;
61391;SDS011;47261;52.892;5.738;2024-02-26T11:20:19;3.53;;;1.55;;
61391;SDS011;47261;52.892;5.738;2024-02-26T11:22:45;4.03;;;1.17;;
61391;SDS011;47261;52.892;5.738;2024-02-26T11:25:11;4.50;;;0.93;;
61391;SDS011;47261;52.892;5.738;2024-02-26T11:27:45;4.93;;;1.60;;
61391;SDS011;47261;52.892;5.738;2024-02-26T11:30:14;5.38;;;1.15;;
61391;SDS011;47261;52.892;5.738;2024-02-26T11:32:44;5.30;;;1.05;;
61391;SDS011;47261;52.892;5.738;2024-02-26T11:35:12;2.87;;;0.70;;
61391;SDS011;47261;52.892;5.738;2024-02-26T11:37:41;3.75;;;0.70;;
61391;SDS011;47261;52.892;5.738;2024-02-26T11:40:26;6.07;;;0.80;;
61391;SDS011;47261;52.892;5.738;2024-02-26T11:42:52;3.35;;;0.90;;
61391;SDS011;47261;52.892;5.738;2024-02-26T11:48:13;3.80;;;1.20;;
61391;SDS011;47261;52.892;5.738;2024-02-26T11:50:46;4.45;;;0.75;;
61391;SDS011;47261;52.892;5.738;2024-02-26T11:53:25;2.85;;;0.70;;
61391;SDS011;47261;52.892;5.738;2024-02-26T11:58:40;4.10;;;0.85;;
61391;SDS011;47261;52.892;5.738;2024-02-26T12:01:06;3.73;;;0.90;;
61391;SDS011;47261;52.892;5.738;2024-02-26T12:03:53;2.75;;;0.68;;
61391;SDS011;47261;52.892;5.738;2024-02-26T12:06:20;3.47;;;1.00;;
61391;SDS011;47261;52.892;5.738;2024-02-26T12:08:46;2.95;;;1.00;;
61391;SDS011;47261;52.892;5.738;2024-02-26T12:11:15;3.37;;;1.00;;
61391;SDS011;47261;52.892;5.738;2024-02-26T12:13:41;6.72;;;1.52;;
61391;SDS011;47261;52.892;5.738;2024-02-26T12:16:07;5.95;;;1.27;;
61391;SDS011;47261;52.892;5.738;2024-02-26T12:18:34;3.13;;;1.27;;
61391;SDS011;47261;52.892;5.738;2024-02-26T12:23:26;3.63;;;1.20;;
61391;SDS011;47261;52.892;5.738;2024-02-26T12:25:53;4.78;;;1.27;;
61391;SDS011;47261;52.892;5.738;2024-02-26T12:28:23;3.80;;;1.30;;
61391;SDS011;47261;52.892;5.738;2024-02-26T12:30:52;5.40;;;1.50;;
61391;SDS011;47261;52.892;5.738;2024-02-26T12:33:17;4.78;;;1.83;;
61391;SDS011;47261;52.892;5.738;2024-02-26T12:35:43;6.43;;;2.30;;
61391;SDS011;47261;52.892;5.738;2024-02-26T12:38:12;4.60;;;1.80;;
61391;SDS011;47261;52.892;5.738;2024-02-26T12:40:40;8.50;;;1.88;;
61391;SDS011;47261;52.892;5.738;2024-02-26T12:43:06;7.78;;;1.63;;
61391;SDS011;47261;52.892;5.738;2024-02-26T12:45:38;4.63;;;1.35;;
61391;SDS011;47261;52.892;5.738;2024-02-26T12:48:05;5.23;;;1.90;;
61391;SDS011;47261;52.892;5.738;2024-02-26T12:50:31;5.20;;;2.10;;
61391;SDS011;47261;52.892;5.738;2024-02-26T12:52:57;4.22;;;2.00;;
61391;SDS011;47261;52.892;5.738;2024-02-26T12:55:24;8.05;;;2.65;;
61391;SDS011;47261;52.892;5.738;2024-02-26T12:57:51;6.32;;;1.98;;
61391;SDS011;47261;52.892;5.738;2024-02-26T13:00:18;5.15;;;1.83;;
61391;SDS011;47261;52.892;5.738;2024-02-26T13:02:50;4.97;;;1.35;;
61391;SDS011;47261;52.892;5.738;2024-02-26T13:05:16;8.57;;;2.00;;
61391;SDS011;47261;52.892;5.738;2024-02-26T13:07:44;3.35;;;1.27;;
61391;SDS011;47261;52.892;5.738;2024-02-26T13:10:12;8.95;;;1.52;;
61391;SDS011;47261;52.892;5.738;2024-02-26T13:12:45;8.93;;;2.20;;
61391;SDS011;47261;52.892;5.738;2024-02-26T13:15:19;4.97;;;1.80;;
61391;SDS011;47261;52.892;5.738;2024-02-26T13:17:46;5.80;;;2.17;;
61391;SDS011;47261;52.892;5.738;2024-02-26T13:20:12;7.13;;;1.55;;
61391;SDS011;47261;52.892;5.738;2024-02-26T13:22:40;9.20;;;2.67;;
61391;SDS011;47261;52.892;5.738;2024-02-26T13:25:05;8.27;;;1.80;;
61391;SDS011;47261;52.892;5.738;2024-02-26T13:27:34;5.85;;;1.92;;
61391;SDS011;47261;52.892;5.738;2024-02-26T13:30:10;9.55;;;2.03;;
61391;SDS011;47261;52.892;5.738;2024-02-26T13:32:37;5.53;;;1.95;;
61391;SDS011;47261;52.892;5.738;2024-02-26T13:35:05;5.88;;;2.22;;
61391;SDS011;47261;52.892;5.738;2024-02-26T13:37:32;5.37;;;1.80;;
61391;SDS011;47261;52.892;5.738;2024-02-26T13:39:59;6.93;;;2.80;;
61391;SDS011;47261;52.892;5.738;2024-02-26T13:42:24;7.57;;;2.20;;
61391;SDS011;47261;52.892;5.738;2024-02-26T13:44:50;7.33;;;2.57;;
61391;SDS011;47261;52.892;5.738;2024-02-26T13:47:16;6.03;;;1.85;;
61391;SDS011;47261;52.892;5.738;2024-02-26T13:49:41;5.87;;;1.70;;
61391;SDS011;47261;52.892;5.738;2024-02-26T13:52:07;6.30;;;2.00;;
61391;SDS011;47261;52.892;5.738;2024-02-26T13:54:32;6.88;;;2.47;;
61391;SDS011;47261;52.892;5.738;2024-02-26T13:56:59;8.10;;;2.60;;
61391;SDS011;47261;52.892;5.738;2024-02-26T13:59:24;6.97;;;1.70;;
61391;SDS011;47261;52.892;5.738;2024-02-26T14:01:50;6.33;;;1.70;;
61391;SDS011;47261;52.892;5.738;2024-02-26T14:04:18;7.68;;;1.80;;
61391;SDS011;47261;52.892;5.738;2024-02-26T14:06:43;5.85;;;2.47;;
61391;SDS011;47261;52.892;5.738;2024-02-26T14:09:09;7.03;;;1.90;;
61391;SDS011;47261;52.892;5.738;2024-02-26T14:11:34;7.93;;;2.70;;
61391;SDS011;47261;52.892;5.738;2024-02-26T14:14:00;6.68;;;2.08;;
61391;SDS011;47261;52.892;5.738;2024-02-26T14:16:26;6.30;;;1.87;;
61391;SDS011;47261;52.892;5.738;2024-02-26T14:18:52;5.18;;;1.70;;
61391;SDS011;47261;52.892;5.738;2024-02-26T14:21:17;8.07;;;2.10;;
61391;SDS011;47261;52.892;5.738;2024-02-26T14:23:43;6.40;;;1.40;;
61391;SDS011;47261;52.892;5.738;2024-02-26T14:26:09;5.50;;;2.17;;
61391;SDS011;47261;52.892;5.738;2024-02-26T14:28:35;6.95;;;2.33;;
61391;SDS011;47261;52.892;5.738;2024-02-26T14:31:01;6.53;;;1.80;;
61391;SDS011;47261;52.892;5.738;2024-02-26T14:33:27;7.18;;;2.47;;
61391;SDS011;47261;52.892;5.738;2024-02-26T14:35:53;7.13;;;2.47;;
61391;SDS011;47261;52.892;5.738;2024-02-26T14:38:18;5.20;;;1.80;;
61391;SDS011;47261;52.892;5.738;2024-02-26T14:40:44;5.90;;;2.25;;
61391;SDS011;47261;52.892;5.738;2024-02-26T14:43:10;6.43;;;2.87;;
61391;SDS011;47261;52.892;5.738;2024-02-26T14:45:36;5.65;;;2.38;;
61391;SDS011;47261;52.892;5.738;2024-02-26T14:48:03;4.97;;;1.85;;